createdAt,value
2023-01-28T00:00:36.142Z,20.44
2023-01-28T00:03:02.483Z,20.43
2023-01-28T00:05:29.995Z,20.42
2023-01-28T00:07:57.856Z,20.41
2023-01-28T00:10:24.192Z,20.40
2023-01-28T00:12:50.941Z,20.39
2023-01-28T00:15:17.283Z,20.37
2023-01-28T00:17:43.679Z,20.38
2023-01-28T00:20:11.958Z,20.37
2023-01-28T00:22:38.285Z,20.36
2023-01-28T00:25:05.137Z,20.35
2023-01-28T00:27:31.485Z,20.36
2023-01-28T00:29:57.806Z,20.36
2023-01-28T00:32:24.139Z,20.38
2023-01-28T00:34:52.743Z,20.40
2023-01-28T00:37:19.194Z,20.39
2023-01-28T00:39:45.513Z,20.43
2023-01-28T00:42:11.879Z,20.43
2023-01-28T00:44:38.249Z,20.44
2023-01-28T00:47:05.162Z,20.46
2023-01-28T00:49:31.489Z,20.47
2023-01-28T00:51:57.840Z,20.46
2023-01-28T00:54:24.175Z,20.47
2023-01-28T00:56:50.503Z,20.46
2023-01-28T00:59:16.833Z,20.47
2023-01-28T01:01:43.779Z,20.46
2023-01-28T01:04:10.145Z,20.44
2023-01-28T01:06:37.278Z,20.44
2023-01-28T01:09:06.137Z,20.43
2023-01-28T01:11:34.091Z,20.42
2023-01-28T01:14:00.563Z,20.42
2023-01-28T01:16:28.567Z,20.40
2023-01-28T01:18:54.950Z,20.40
2023-01-28T01:21:22.092Z,20.42
2023-01-28T01:23:48.423Z,20.42
2023-01-28T01:26:14.761Z,20.42
2023-01-28T01:28:41.259Z,20.44
2023-01-28T01:31:08.900Z,20.45
2023-01-28T01:33:35.286Z,20.45
2023-01-28T01:36:01.684Z,20.45
2023-01-28T01:38:28.223Z,20.44
2023-01-28T01:40:58.657Z,20.44
2023-01-28T01:43:24.999Z,20.42
2023-01-28T01:45:53.308Z,20.43
2023-01-28T01:48:20.917Z,20.40
2023-01-28T01:50:49.645Z,20.41
2023-01-28T01:53:16.963Z,20.40
2023-01-28T01:55:43.687Z,20.39
2023-01-28T01:58:11.790Z,20.40
2023-01-28T02:00:38.467Z,20.41
2023-01-28T02:03:04.853Z,20.41
2023-01-28T02:05:31.195Z,20.41
2023-01-28T02:08:20.398Z,20.42
2023-01-28T02:10:47.118Z,20.44
2023-01-28T02:13:13.456Z,20.42
2023-01-28T02:15:39.782Z,20.42
2023-01-28T02:18:06.143Z,20.42
2023-01-28T02:20:44.615Z,20.39
2023-01-28T02:23:14.259Z,20.41
2023-01-28T02:25:43.667Z,20.40
2023-01-28T02:28:19.259Z,20.39
2023-01-28T02:30:53.082Z,20.39
2023-01-28T02:33:22.360Z,20.40
2023-01-28T02:35:49.648Z,20.38
2023-01-28T02:38:34.943Z,20.37
2023-01-28T02:41:02.079Z,20.38
2023-01-28T02:43:33.124Z,20.40
2023-01-28T02:46:18.142Z,20.40
2023-01-28T02:48:44.545Z,20.40
2023-01-28T02:51:15.143Z,20.42
2023-01-28T02:53:45.127Z,20.41
2023-01-28T02:56:29.254Z,20.41
2023-01-28T02:59:22.120Z,20.41
2023-01-28T03:01:49.204Z,20.39
2023-01-28T03:04:20.693Z,20.39
2023-01-28T03:06:49.275Z,20.38
2023-01-28T03:09:26.915Z,20.37
2023-01-28T03:12:14.045Z,20.35
2023-01-28T03:14:59.186Z,20.34
2023-01-28T03:17:46.531Z,20.36
2023-01-28T03:20:31.738Z,20.36
2023-01-28T03:23:17.292Z,20.36
2023-01-28T03:26:02.927Z,20.38
2023-01-28T03:28:48.173Z,20.38
2023-01-28T03:31:33.933Z,20.39
2023-01-28T03:34:19.689Z,20.38
2023-01-28T03:36:53.395Z,20.36
2023-01-28T03:39:35.409Z,20.37
2023-01-28T03:42:03.995Z,20.37
2023-01-28T03:44:49.165Z,20.36
2023-01-28T03:47:16.688Z,20.36
2023-01-28T03:49:44.590Z,20.37
2023-01-28T03:52:11.963Z,20.38
2023-01-28T03:54:38.316Z,20.38
2023-01-28T03:57:06.106Z,20.40
2023-01-28T03:59:32.830Z,20.41
2023-01-28T04:01:59.444Z,20.39
2023-01-28T04:04:25.874Z,20.42
2023-01-28T04:06:54.814Z,20.43
2023-01-28T04:09:40.675Z,20.43
2023-01-28T04:12:29.670Z,20.42
2023-01-28T04:14:55.986Z,20.44
2023-01-28T04:17:27.320Z,20.44
2023-01-28T04:19:53.663Z,20.43
2023-01-28T04:22:21.229Z,20.43
2023-01-28T04:24:47.556Z,20.42
2023-01-28T04:27:15.115Z,20.41
2023-01-28T04:29:41.570Z,20.41
2023-01-28T04:32:31.191Z,20.41
2023-01-28T04:35:04.653Z,20.39
2023-01-28T04:37:48.703Z,20.40
2023-01-28T04:40:33.661Z,20.39
2023-01-28T04:43:09.515Z,20.40
2023-01-28T04:46:08.789Z,20.40
2023-01-28T04:48:47.727Z,20.40
2023-01-28T04:51:32.687Z,20.40
2023-01-28T04:54:16.388Z,20.41
2023-01-28T04:56:42.988Z,20.43
2023-01-28T04:59:09.823Z,20.43
2023-01-28T05:01:36.166Z,20.44
2023-01-28T05:04:05.581Z,20.44
2023-01-28T05:06:33.892Z,20.46
2023-01-28T05:09:05.777Z,20.46
2023-01-28T05:11:32.478Z,20.45
2023-01-28T05:14:03.245Z,20.45
2023-01-28T05:16:38.275Z,20.44
2023-01-28T05:19:04.667Z,20.43
2023-01-28T05:21:38.074Z,20.42
2023-01-28T05:24:09.009Z,20.41
2023-01-28T05:26:35.496Z,20.41
2023-01-28T05:29:01.871Z,20.42
2023-01-28T05:31:28.528Z,20.42
2023-01-28T05:33:55.986Z,20.41
2023-01-28T05:36:23.109Z,20.42
2023-01-28T05:38:49.559Z,20.43
2023-01-28T05:41:15.887Z,20.43
2023-01-28T05:43:44.078Z,20.45
2023-01-28T05:46:45.373Z,20.45
2023-01-28T05:49:37.815Z,20.44
2023-01-28T05:52:24.134Z,20.44
2023-01-28T05:54:50.517Z,20.43
2023-01-28T05:57:17.081Z,20.43
2023-01-28T05:59:43.606Z,20.42
2023-01-28T06:02:09.986Z,20.42
2023-01-28T06:04:36.493Z,20.41
2023-01-28T06:07:02.860Z,20.42
2023-01-28T06:09:29.465Z,20.42
2023-01-28T06:11:55.899Z,20.43
2023-01-28T06:14:23.235Z,20.44
2023-01-28T06:17:16.276Z,20.44
2023-01-28T06:20:06.432Z,20.46
2023-01-28T06:22:32.825Z,20.47
2023-01-28T06:25:00.382Z,20.46
2023-01-28T06:27:27.486Z,20.46
2023-01-28T06:29:53.810Z,20.46
2023-01-28T06:32:20.959Z,20.46
2023-01-28T06:34:47.300Z,20.45
2023-01-28T06:37:13.799Z,20.44
2023-01-28T06:39:40.117Z,20.44
2023-01-28T06:42:06.451Z,20.44
2023-01-28T06:44:32.838Z,20.43
2023-01-28T06:46:59.162Z,20.44
2023-01-28T06:49:25.485Z,20.44
2023-01-28T06:51:51.795Z,20.44
2023-01-28T06:54:18.122Z,20.45
2023-01-28T06:56:44.433Z,20.46
2023-01-28T06:59:10.763Z,20.47
2023-01-28T07:01:37.163Z,20.47
2023-01-28T07:04:03.567Z,20.46
2023-01-28T07:06:29.897Z,20.46
2023-01-28T07:08:56.235Z,20.47
2023-01-28T07:11:22.583Z,20.46
2023-01-28T07:13:48.933Z,20.45
2023-01-28T07:16:15.268Z,20.44
2023-01-28T07:18:41.597Z,20.44
2023-01-28T07:21:07.923Z,20.44
2023-01-28T07:23:34.274Z,20.44
2023-01-28T07:26:01.321Z,20.45
2023-01-28T07:28:27.698Z,20.45
2023-01-28T07:30:54.082Z,20.44
2023-01-28T07:33:20.469Z,20.44
2023-01-28T07:35:47.144Z,20.45
2023-01-28T07:38:13.478Z,20.46
2023-01-28T07:40:39.822Z,20.46
2023-01-28T07:43:07.193Z,20.47
2023-01-28T07:45:37.395Z,20.46
2023-01-28T07:48:04.614Z,20.45
2023-01-28T07:50:31.731Z,20.45
2023-01-28T07:52:58.159Z,20.44
2023-01-28T07:55:24.514Z,20.46
2023-01-28T07:57:57.445Z,20.44
2023-01-28T08:00:23.941Z,20.45
2023-01-28T08:02:50.336Z,20.46
2023-01-28T08:05:17.463Z,20.45
2023-01-28T08:07:44.010Z,20.46
2023-01-28T08:10:10.997Z,20.46
2023-01-28T08:12:37.586Z,20.48
2023-01-28T08:15:05.917Z,20.47
2023-01-28T08:17:32.233Z,20.48
2023-01-28T08:19:58.563Z,20.49
2023-01-28T08:22:25.502Z,20.53
2023-01-28T08:24:51.828Z,20.54
2023-01-28T08:27:18.151Z,20.55
2023-01-28T08:29:44.503Z,20.55
2023-01-28T08:32:10.948Z,20.53
2023-01-28T08:34:37.277Z,20.54
2023-01-28T08:37:05.743Z,20.54
2023-01-28T08:39:32.087Z,20.56
2023-01-28T08:41:58.391Z,20.57
2023-01-28T08:44:24.732Z,20.58
2023-01-28T08:46:51.065Z,20.57
2023-01-28T08:49:17.468Z,20.57
2023-01-28T08:51:43.772Z,20.57
2023-01-28T08:54:10.101Z,20.56
2023-01-28T08:56:36.528Z,20.53
2023-01-28T08:59:02.858Z,20.55
2023-01-28T09:01:29.361Z,20.59
2023-01-28T09:03:56.157Z,20.58
2023-01-28T09:06:22.487Z,20.58
2023-01-28T09:08:48.807Z,20.61
2023-01-28T09:11:15.131Z,20.57
2023-01-28T09:13:41.588Z,20.57
2023-01-28T09:16:08.211Z,20.57
2023-01-28T09:18:34.540Z,20.58
2023-01-28T09:21:00.963Z,20.56
2023-01-28T09:23:27.301Z,20.57
2023-01-28T09:25:59.422Z,20.57
2023-01-28T09:28:25.763Z,20.57
2023-01-28T09:30:52.158Z,20.57
2023-01-28T09:33:18.499Z,20.52
2023-01-28T09:35:44.941Z,20.30
2023-01-28T09:38:11.253Z,20.21
2023-01-28T09:40:38.307Z,20.05
2023-01-28T09:43:10.304Z,20.19
2023-01-28T09:45:37.602Z,20.39
2023-01-28T09:48:04.763Z,20.46
2023-01-28T09:50:35.442Z,20.50
2023-01-28T09:53:11.018Z,20.45
2023-01-28T09:55:40.876Z,19.78
2023-01-28T09:58:15.002Z,20.04
2023-01-28T10:00:50.649Z,20.21
2023-01-28T10:03:23.153Z,20.34
2023-01-28T10:06:02.507Z,20.38
2023-01-28T10:08:36.430Z,20.17
2023-01-28T10:11:10.860Z,20.32
2023-01-28T10:13:43.437Z,20.42
2023-01-28T10:16:12.742Z,20.57
2023-01-28T10:18:44.044Z,20.60
2023-01-28T10:21:29.108Z,20.56
2023-01-28T10:23:58.438Z,20.57
2023-01-28T10:26:26.764Z,18.02
2023-01-28T10:29:00.711Z,17.24
2023-01-28T10:31:30.298Z,18.54
2023-01-28T10:33:56.700Z,19.42
2023-01-28T10:36:23.012Z,19.80
2023-01-28T10:38:49.362Z,19.98
2023-01-28T10:41:17.118Z,20.14
2023-01-28T10:43:43.697Z,20.20
2023-01-28T10:46:14.392Z,19.96
2023-01-28T10:48:45.114Z,20.13
2023-01-28T10:51:11.443Z,20.20
2023-01-28T10:53:37.764Z,20.24
2023-01-28T10:56:04.908Z,20.28
2023-01-28T10:58:31.635Z,20.29
2023-01-28T11:00:59.603Z,20.33
2023-01-28T11:03:30.732Z,20.36
2023-01-28T11:05:57.155Z,20.35
2023-01-28T11:08:24.458Z,20.37
2023-01-28T11:10:50.785Z,20.38
2023-01-28T11:13:18.727Z,20.38
2023-01-28T11:15:48.826Z,20.40
2023-01-28T11:18:22.670Z,20.41
2023-01-28T11:20:49.691Z,20.42
2023-01-28T11:23:19.840Z,20.44
2023-01-28T11:25:46.374Z,20.43
2023-01-28T11:28:17.431Z,20.45
2023-01-28T11:30:43.791Z,20.48
2023-01-28T11:33:39.502Z,20.47
2023-01-28T11:36:15.834Z,20.48
2023-01-28T11:38:49.010Z,20.53
2023-01-28T11:41:15.331Z,20.55
2023-01-28T11:43:41.658Z,20.56
2023-01-28T11:46:08.169Z,20.57
2023-01-28T11:48:34.529Z,20.59
2023-01-28T11:51:19.383Z,20.58
2023-01-28T11:53:48.550Z,20.58
2023-01-28T11:56:20.172Z,20.60
2023-01-28T11:58:56.496Z,20.59
2023-01-28T12:01:24.867Z,20.58
2023-01-28T12:03:59.517Z,20.63
2023-01-28T12:06:28.710Z,20.66
2023-01-28T12:09:07.962Z,20.62
2023-01-28T12:12:04.858Z,20.60
2023-01-28T12:14:42.275Z,20.59
2023-01-28T12:17:20.771Z,20.58
2023-01-28T12:19:58.956Z,19.81
2023-01-28T12:22:31.344Z,19.92
2023-01-28T12:25:07.117Z,20.11
2023-01-28T12:27:41.558Z,20.32
2023-01-28T12:30:18.547Z,20.23
2023-01-28T12:33:07.157Z,20.00
2023-01-28T12:35:43.483Z,20.00
2023-01-28T12:38:12.909Z,20.04
2023-01-28T12:40:47.337Z,20.11
2023-01-28T12:43:25.288Z,20.13
2023-01-28T12:45:58.226Z,20.16
2023-01-28T12:48:27.428Z,20.09
2023-01-28T12:50:55.199Z,20.00
2023-01-28T12:53:40.308Z,19.95
2023-01-28T12:56:08.639Z,19.91
2023-01-28T12:58:37.086Z,19.87
2023-01-28T13:01:04.840Z,19.98
2023-01-28T13:03:35.629Z,20.09
2023-01-28T13:06:02.694Z,20.16
2023-01-28T13:08:29.143Z,20.21
2023-01-28T13:10:56.739Z,20.22
2023-01-28T13:13:30.987Z,20.24
2023-01-28T13:15:57.312Z,20.23
2023-01-28T13:18:30.451Z,20.21
2023-01-28T13:20:56.795Z,20.29
2023-01-28T13:23:25.778Z,20.35
2023-01-28T13:25:53.025Z,20.37
2023-01-28T13:28:37.390Z,20.38
2023-01-28T13:31:05.050Z,20.39
2023-01-28T13:33:32.448Z,20.38
2023-01-28T13:35:58.784Z,20.39
2023-01-28T13:38:25.106Z,20.42
2023-01-28T13:40:55.079Z,20.44
2023-01-28T13:43:28.793Z,20.46
2023-01-28T13:45:56.127Z,20.45
2023-01-28T13:48:32.661Z,20.45
2023-01-28T13:50:58.989Z,20.46
2023-01-28T13:53:30.475Z,20.47
2023-01-28T13:55:57.418Z,20.46
2023-01-28T13:58:42.554Z,20.46
2023-01-28T14:01:27.728Z,20.45
2023-01-28T14:03:57.491Z,20.43
2023-01-28T14:06:50.176Z,20.45
2023-01-28T14:09:20.506Z,20.42
2023-01-28T14:12:07.653Z,20.42
2023-01-28T14:14:43.515Z,20.42
2023-01-28T14:17:13.007Z,20.42
2023-01-28T14:19:39.330Z,20.42
2023-01-28T14:22:09.061Z,20.41
2023-01-28T14:24:36.730Z,20.41
2023-01-28T14:27:06.171Z,20.39
2023-01-28T14:29:51.264Z,20.39
2023-01-28T14:32:28.576Z,20.37
2023-01-28T14:34:55.438Z,20.35
2023-01-28T14:37:22.845Z,20.35
2023-01-28T14:39:51.077Z,20.32
2023-01-28T14:42:21.226Z,20.31
2023-01-28T14:44:48.457Z,20.29
2023-01-28T14:47:20.695Z,20.31
2023-01-28T14:49:46.948Z,20.30
2023-01-28T14:52:20.205Z,20.34
2023-01-28T14:54:48.132Z,20.36
2023-01-28T14:57:16.540Z,20.36
2023-01-28T14:59:43.990Z,20.38
2023-01-28T15:02:12.432Z,20.40
2023-01-28T15:04:38.783Z,20.41
2023-01-28T15:07:18.644Z,20.41
2023-01-28T15:09:44.958Z,20.41
2023-01-28T15:12:11.305Z,20.42
2023-01-28T15:14:37.918Z,20.42
2023-01-28T15:17:04.735Z,20.42
2023-01-28T15:19:32.066Z,20.42
2023-01-28T15:22:05.815Z,20.40
2023-01-28T15:24:32.391Z,20.40
2023-01-28T15:26:58.786Z,20.39
2023-01-28T15:29:35.221Z,20.37
2023-01-28T15:32:01.574Z,20.38
2023-01-28T15:34:30.944Z,20.37
2023-01-28T15:36:57.681Z,20.38
2023-01-28T15:39:24.443Z,20.38
2023-01-28T15:42:01.151Z,20.38
2023-01-28T15:44:31.343Z,20.38
2023-01-28T15:47:01.257Z,20.39
2023-01-28T15:49:28.448Z,20.40
2023-01-28T15:51:54.796Z,20.41
2023-01-28T15:54:21.177Z,20.40
2023-01-28T15:56:47.527Z,20.40
2023-01-28T15:59:17.707Z,20.40
2023-01-28T16:01:44.039Z,20.40
2023-01-28T16:04:23.634Z,20.40
2023-01-28T16:06:50.030Z,20.38
2023-01-28T16:09:20.854Z,20.36
2023-01-28T16:11:47.196Z,20.36
2023-01-28T16:14:20.791Z,20.35
2023-01-28T16:16:47.180Z,20.35
2023-01-28T16:19:18.630Z,20.34
2023-01-28T16:21:45.005Z,20.35
2023-01-28T16:24:22.854Z,20.36
2023-01-28T16:26:59.268Z,20.37
2023-01-28T16:29:25.633Z,20.34
2023-01-28T16:31:52.023Z,20.39
2023-01-28T16:34:18.401Z,20.38
2023-01-28T16:36:44.737Z,20.39
2023-01-28T16:39:11.071Z,20.39
2023-01-28T16:41:38.749Z,20.40
2023-01-28T16:44:05.902Z,20.40
2023-01-28T16:46:33.453Z,20.42
2023-01-28T16:48:59.816Z,20.46
2023-01-28T16:51:26.133Z,20.43
2023-01-28T16:53:52.437Z,20.40
2023-01-28T16:56:35.716Z,20.38
2023-01-28T16:59:06.132Z,20.37
2023-01-28T17:01:32.473Z,20.34
2023-01-28T17:03:58.940Z,20.33
2023-01-28T17:06:25.296Z,20.33
2023-01-28T17:08:51.645Z,20.32
2023-01-28T17:11:17.989Z,20.34
2023-01-28T17:13:44.351Z,20.32
2023-01-28T17:16:10.718Z,20.33
2023-01-28T17:18:37.048Z,20.33
2023-01-28T17:21:04.091Z,20.34
2023-01-28T17:23:30.441Z,20.35
2023-01-28T17:25:56.759Z,20.35
2023-01-28T17:28:23.100Z,20.35
2023-01-28T17:30:49.491Z,20.37
2023-01-28T17:33:15.866Z,20.39
2023-01-28T17:35:45.270Z,20.38
2023-01-28T17:38:11.581Z,20.42
2023-01-28T17:40:37.970Z,20.45
2023-01-28T17:43:04.301Z,20.46
2023-01-28T17:45:31.223Z,20.46
2023-01-28T17:47:57.620Z,20.44
2023-01-28T17:50:23.974Z,20.28
2023-01-28T17:52:56.426Z,20.30
2023-01-28T17:55:23.150Z,20.32
2023-01-28T17:57:49.637Z,20.33
2023-01-28T18:00:16.163Z,20.35
2023-01-28T18:02:42.485Z,20.34
2023-01-28T18:05:08.929Z,20.35
2023-01-28T18:07:35.261Z,20.35
2023-01-28T18:10:01.597Z,20.23
2023-01-28T18:12:27.926Z,20.20
2023-01-28T18:14:54.256Z,20.27
2023-01-28T18:17:22.746Z,20.30
2023-01-28T18:19:49.096Z,20.34
2023-01-28T18:22:15.429Z,20.36
2023-01-28T18:24:41.746Z,20.38
2023-01-28T18:27:08.106Z,20.40
2023-01-28T18:29:34.419Z,20.40
2023-01-28T18:32:00.857Z,20.39
2023-01-28T18:34:27.765Z,20.41
2023-01-28T18:36:54.092Z,20.42
2023-01-28T18:39:20.549Z,20.40
2023-01-28T18:41:46.856Z,20.39
2023-01-28T18:44:13.423Z,20.38
2023-01-28T18:46:39.850Z,20.37
2023-01-28T18:49:06.178Z,20.36
2023-01-28T18:51:32.497Z,20.35
2023-01-28T18:53:58.939Z,20.35
2023-01-28T18:56:25.433Z,20.35
2023-01-28T18:59:15.073Z,20.33
2023-01-28T19:01:42.570Z,20.34
2023-01-28T19:04:08.998Z,20.36
2023-01-28T19:06:35.306Z,20.34
2023-01-28T19:09:05.859Z,20.37
2023-01-28T19:11:32.179Z,20.36
2023-01-28T19:13:58.507Z,20.36
2023-01-28T19:16:24.878Z,20.38
2023-01-28T19:18:54.681Z,20.38
2023-01-28T19:21:21.349Z,20.39
2023-01-28T19:23:50.164Z,20.40
2023-01-28T19:26:20.931Z,20.40
2023-01-28T19:28:48.170Z,20.40
2023-01-28T19:31:14.541Z,20.40
2023-01-28T19:33:41.297Z,20.40
2023-01-28T19:36:07.688Z,20.39
2023-01-28T19:38:34.019Z,20.38
2023-01-28T19:41:06.845Z,20.36
2023-01-28T19:43:33.944Z,20.34
2023-01-28T19:46:00.967Z,20.34
2023-01-28T19:48:27.343Z,20.33
2023-01-28T19:50:53.654Z,20.35
2023-01-28T19:53:20.031Z,20.35
2023-01-28T19:55:46.362Z,20.35
2023-01-28T19:58:12.704Z,20.36
2023-01-28T20:00:39.031Z,20.37
2023-01-28T20:03:07.802Z,20.36
2023-01-28T20:05:34.541Z,20.38
2023-01-28T20:08:00.869Z,20.38
2023-01-28T20:10:27.193Z,20.37
2023-01-28T20:12:53.539Z,20.39
2023-01-28T20:15:19.857Z,20.39
2023-01-28T20:17:46.611Z,20.39
2023-01-28T20:20:13.222Z,20.40
2023-01-28T20:22:39.594Z,20.32
2023-01-28T20:25:06.288Z,20.41
2023-01-28T20:27:32.669Z,20.38
2023-01-28T20:29:59.012Z,20.42
2023-01-28T20:32:25.488Z,20.30
2023-01-28T20:34:51.898Z,20.29
2023-01-28T20:37:18.387Z,20.20
2023-01-28T20:39:44.788Z,20.12
2023-01-28T20:42:13.157Z,18.77
2023-01-28T20:44:39.785Z,19.09
2023-01-28T20:47:06.168Z,19.61
2023-01-28T20:49:32.744Z,19.91
2023-01-28T20:51:59.108Z,20.07
2023-01-28T20:54:25.538Z,20.20
2023-01-28T20:56:52.285Z,20.26
2023-01-28T20:59:19.275Z,20.27
2023-01-28T21:01:45.695Z,20.27
2023-01-28T21:04:12.063Z,20.29
2023-01-28T21:06:38.408Z,20.29
2023-01-28T21:09:04.751Z,20.30
2023-01-28T21:11:31.154Z,20.32
2023-01-28T21:13:57.489Z,20.31
2023-01-28T21:16:23.884Z,20.33
2023-01-28T21:18:50.411Z,20.30
2023-01-28T21:21:17.806Z,20.30
2023-01-28T21:23:44.227Z,20.30
2023-01-28T21:26:10.570Z,20.29
2023-01-28T21:28:36.911Z,20.30
2023-01-28T21:31:07.112Z,20.28
2023-01-28T21:33:33.527Z,20.29
2023-01-28T21:35:59.872Z,20.29
2023-01-28T21:38:26.191Z,20.29
2023-01-28T21:40:52.647Z,20.28
2023-01-28T21:43:19.156Z,20.27
2023-01-28T21:45:47.698Z,20.27
2023-01-28T21:48:14.035Z,20.28
2023-01-28T21:51:00.331Z,20.26
2023-01-28T21:53:26.670Z,20.26
2023-01-28T21:55:52.994Z,20.25
2023-01-28T21:58:38.114Z,20.25
2023-01-28T22:01:10.369Z,20.23
2023-01-28T22:03:36.685Z,20.23
2023-01-28T22:06:02.996Z,20.21
2023-01-28T22:08:29.323Z,20.20
2023-01-28T22:10:56.635Z,20.19
2023-01-28T22:13:22.970Z,20.19
2023-01-28T22:15:49.312Z,20.18
2023-01-28T22:18:15.648Z,20.16
2023-01-28T22:20:41.998Z,20.16
2023-01-28T22:23:08.334Z,20.14
2023-01-28T22:25:35.125Z,20.11
2023-01-28T22:28:01.453Z,20.11
2023-01-28T22:30:27.770Z,20.11
2023-01-28T22:32:54.095Z,20.09
2023-01-28T22:35:20.417Z,20.07
2023-01-28T22:37:46.770Z,20.07
2023-01-28T22:40:13.262Z,20.06
2023-01-28T22:42:39.769Z,20.05
2023-01-28T22:45:06.528Z,20.02
2023-01-28T22:47:32.850Z,20.02
2023-01-28T22:49:59.213Z,20.01
2023-01-28T22:52:25.554Z,19.99
2023-01-28T22:54:52.021Z,19.98
2023-01-28T22:57:18.352Z,19.99
2023-01-28T22:59:59.238Z,19.98
2023-01-28T23:02:26.303Z,19.97
2023-01-28T23:04:52.686Z,19.96
2023-01-28T23:07:19.054Z,19.96
2023-01-28T23:09:45.380Z,19.95
2023-01-28T23:12:11.747Z,19.94
2023-01-28T23:14:56.575Z,19.93
2023-01-28T23:17:41.396Z,19.91
2023-01-28T23:20:27.882Z,19.92
2023-01-28T23:23:12.707Z,19.91
2023-01-28T23:25:39.026Z,19.90
2023-01-28T23:28:05.337Z,19.92
2023-01-28T23:30:31.694Z,19.94
2023-01-28T23:32:58.090Z,19.97
2023-01-28T23:35:27.204Z,19.98
2023-01-28T23:37:54.142Z,19.99
2023-01-28T23:40:23.817Z,20.02
2023-01-28T23:42:50.516Z,20.03
2023-01-28T23:45:17.239Z,20.05
2023-01-28T23:47:43.591Z,20.05
2023-01-28T23:50:10.176Z,20.06
2023-01-28T23:52:36.564Z,20.06
2023-01-28T23:55:02.923Z,20.06
2023-01-28T23:57:29.249Z,20.06
2023-01-28T23:59:55.666Z,20.06
